Time;durP1;ratioP1;P1;durP2;ratioP2;P2;SDS_P1;SDS_P2;PMS_P1;PMS_P2;Temp;Humidity;BMP_temperature;BMP_pressure;BME280_temperature;BME280_humidity;BME280_pressure;Samples;Min_cycle;Max_cycle;Signal;HPM_P1;HPM_P2
2022/10/13 00:00:12;;;;;;;;;;;27.90;99.90;;;;;;5044698;22;19953;-62
2022/10/13 00:02:38;;;;;;;;;;;27.90;99.90;;;;;;5032009;28;20295;-59
2022/10/13 00:05:04;;;;;;;;;;;27.90;99.90;;;;;;5032342;28;19905;-58
2022/10/13 00:07:29;;;;;;;;;;;27.90;99.90;;;;;;5032147;28;20000;-60
2022/10/13 00:09:55;;;;;;;;;;;27.90;99.90;;;;;;5032082;28;19996;-60
2022/10/13 00:12:20;;;;;;;;;;;27.90;99.90;;;;;;5032134;28;20283;-60
2022/10/13 00:14:46;;;;;;;;;;;27.90;99.90;;;;;;5030556;28;19913;-58
2022/10/13 00:17:12;;;;;;;;;;;27.80;99.90;;;;;;5030797;28;19959;-57
2022/10/13 00:19:38;;;;;;;;;;;27.90;99.90;;;;;;5030755;28;19916;-58
2022/10/13 00:22:04;;;;;;;;;;;27.80;99.90;;;;;;5032003;28;19912;-58
2022/10/13 00:24:30;;;;;;;;;;;27.80;99.90;;;;;;5030680;28;19905;-58
2022/10/13 00:26:55;;;;;;;;;;;27.80;99.90;;;;;;5013931;28;19914;-58
2022/10/13 00:29:21;;;;;;;;;;;27.80;99.90;;;;;;5031874;28;19912;-58
2022/10/13 00:31:47;;;;;;;;;;;27.80;99.90;;;;;;5031847;28;19912;-57
2022/10/13 00:34:12;;;;;;;;;;;27.80;99.90;;;;;;5031701;28;19905;-58
2022/10/13 00:36:38;;;;;;;;;;;27.70;99.90;;;;;;5030824;28;19905;-59
2022/10/13 00:39:03;;;;;;;;;;;27.70;99.90;;;;;;5046958;28;19905;-60
2022/10/13 00:41:29;;;;;;;;;;;27.70;99.90;;;;;;5031476;28;19952;-59
2022/10/13 00:43:59;;;;;;;;;;;27.70;99.90;;;;;;5047049;28;19905;-60
2022/10/13 00:46:32;;;;;;;;;;;27.70;99.90;;;;;;5031447;28;19996;-57
2022/10/13 00:49:01;;;;;;;;;;;27.70;99.90;;;;;;5032318;28;19905;-55
2022/10/13 00:51:28;;;;;;;;;;;27.70;99.90;;;;;;5035560;28;19905;-57
2022/10/13 00:53:55;;;;;;;;;;;27.70;99.90;;;;;;5036000;28;19905;-59
2022/10/13 00:56:22;;;;;;;;;;;27.60;99.90;;;;;;5035483;28;20327;-59
2022/10/13 00:58:47;;;;;;;;;;;27.60;99.90;;;;;;5035435;28;19924;-60
2022/10/13 01:01:13;;;;;;;;;;;27.60;99.90;;;;;;5035704;28;19917;-60
2022/10/13 01:03:39;;;;;;;;;;;27.60;99.90;;;;;;5035512;28;19970;-57
2022/10/13 01:06:06;;;;;;;;;;;27.60;99.90;;;;;;5035587;28;19905;-58
2022/10/13 01:08:32;;;;;;;;;;;27.60;99.90;;;;;;5035373;28;19962;-60
2022/10/13 01:11:06;;;;;;;;;;;27.60;99.90;;;;;;5035177;28;19963;-60
2022/10/13 01:13:50;;;;;;;;;;;27.60;99.90;;;;;;5033862;28;19909;-59
2022/10/13 01:16:18;;;;;;;;;;;27.60;99.90;;;;;;5035073;28;19920;-61
2022/10/13 01:18:50;;;;;;;;;;;27.60;99.90;;;;;;5035246;28;19905;-61
2022/10/13 01:21:18;;;;;;;;;;;27.60;99.90;;;;;;5035086;28;19909;-55
2022/10/13 01:24:13;;;;;;;;;;;27.50;99.90;;;;;;5035102;28;20268;-56
2022/10/13 01:26:53;;;;;;;;;;;27.50;99.90;;;;;;5015517;28;19905;-58
2022/10/13 01:29:37;;;;;;;;;;;27.50;99.90;;;;;;5034894;28;19924;-59
2022/10/13 01:32:09;;;;;;;;;;;27.60;99.90;;;;;;5034934;28;19905;-61
2022/10/13 01:34:34;;;;;;;;;;;27.50;99.90;;;;;;5034645;28;19968;-58
2022/10/13 01:37:03;;;;;;;;;;;27.50;99.90;;;;;;5034754;28;19947;-60
2022/10/13 01:39:39;;;;;;;;;;;27.50;99.90;;;;;;5034636;28;19908;-60
2022/10/13 01:42:13;;;;;;;;;;;27.50;99.90;;;;;;5034715;28;19905;-61
2022/10/13 01:44:45;;;;;;;;;;;27.50;99.90;;;;;;5034839;28;19954;-59
2022/10/13 01:47:13;;;;;;;;;;;27.50;99.90;;;;;;5034765;28;19912;-60
2022/10/13 01:49:39;;;;;;;;;;;27.50;99.90;;;;;;5034628;28;19909;-59
2022/10/13 01:52:07;;;;;;;;;;;27.50;99.90;;;;;;5034472;28;20471;-58
2022/10/13 01:54:32;;;;;;;;;;;27.50;99.90;;;;;;5034353;28;19919;-59
2022/10/13 01:56:58;;;;;;;;;;;27.40;99.90;;;;;;5034259;28;20384;-58
2022/10/13 01:59:25;;;;;;;;;;;27.40;99.90;;;;;;5033458;28;19905;-57
2022/10/13 02:01:58;;;;;;;;;;;27.40;99.90;;;;;;5033316;28;19905;-57
2022/10/13 02:04:43;;;;;;;;;;;27.40;99.90;;;;;;5034046;28;19905;-57
2022/10/13 02:07:43;;;;;;;;;;;27.40;99.90;;;;;;5034264;28;19915;-56
2022/10/13 02:10:29;;;;;;;;;;;27.40;99.90;;;;;;5012105;28;20364;-57
2022/10/13 02:12:59;;;;;;;;;;;27.40;99.90;;;;;;5031756;28;20380;-56
2022/10/13 02:15:28;;;;;;;;;;;27.40;99.90;;;;;;5033911;28;19936;-57
2022/10/13 02:17:54;;;;;;;;;;;27.40;99.90;;;;;;5033957;28;19912;-56
2022/10/13 02:20:20;;;;;;;;;;;27.30;99.90;;;;;;5033919;28;19905;-57
2022/10/13 02:22:48;;;;;;;;;;;27.30;99.90;;;;;;5033878;28;19936;-58
2022/10/13 02:25:14;;;;;;;;;;;27.30;99.90;;;;;;5034151;28;19911;-57
2022/10/13 02:27:40;;;;;;;;;;;27.30;99.90;;;;;;5033914;28;19905;-57
2022/10/13 02:30:05;;;;;;;;;;;27.30;99.90;;;;;;5033651;28;19916;-59
2022/10/13 02:32:31;;;;;;;;;;;27.30;99.90;;;;;;5033651;28;19912;-59
2022/10/13 02:34:57;;;;;;;;;;;27.30;99.90;;;;;;5033569;28;19913;-58
2022/10/13 02:37:24;;;;;;;;;;;27.30;99.90;;;;;;5033698;28;19905;-60
2022/10/13 02:39:50;;;;;;;;;;;27.30;99.90;;;;;;5033572;28;19958;-58
2022/10/13 02:42:16;;;;;;;;;;;27.30;99.90;;;;;;5033634;28;20358;-57
2022/10/13 02:44:41;;;;;;;;;;;27.30;99.90;;;;;;5032326;28;19913;-57
2022/10/13 02:47:07;;;;;;;;;;;27.30;99.90;;;;;;5033448;28;19909;-56
2022/10/13 02:49:32;;;;;;;;;;;27.30;99.90;;;;;;5033476;28;19928;-56
2022/10/13 02:51:58;;;;;;;;;;;27.20;99.90;;;;;;5033484;28;19905;-56
2022/10/13 02:54:23;;;;;;;;;;;27.20;99.90;;;;;;5033396;28;19999;-57
2022/10/13 02:56:49;;;;;;;;;;;27.20;99.90;;;;;;5033276;28;19932;-57
2022/10/13 02:59:15;;;;;;;;;;;27.20;99.90;;;;;;5033874;28;20434;-57
2022/10/13 03:01:41;;;;;;;;;;;27.20;99.90;;;;;;5032987;28;19916;-57
2022/10/13 03:04:07;;;;;;;;;;;27.20;99.90;;;;;;5033104;28;19909;-56
2022/10/13 03:06:33;;;;;;;;;;;27.20;99.90;;;;;;5031882;28;19905;-57
2022/10/13 03:08:58;;;;;;;;;;;27.20;99.90;;;;;;5033045;28;20418;-57
2022/10/13 03:11:24;;;;;;;;;;;27.20;99.90;;;;;;5033093;28;20280;-56
2022/10/13 03:13:50;;;;;;;;;;;27.20;99.90;;;;;;5032992;28;19905;-56
2022/10/13 03:16:15;;;;;;;;;;;27.10;99.90;;;;;;5033023;28;19972;-57
2022/10/13 03:18:41;;;;;;;;;;;27.10;99.90;;;;;;5032889;28;19948;-57
2022/10/13 03:21:06;;;;;;;;;;;27.20;99.90;;;;;;5032901;28;19962;-57
2022/10/13 03:23:32;;;;;;;;;;;27.10;99.90;;;;;;5032694;28;19905;-59
2022/10/13 03:25:58;;;;;;;;;;;27.20;99.90;;;;;;5032750;28;20398;-59
2022/10/13 03:28:23;;;;;;;;;;;27.10;99.90;;;;;;5032607;28;19905;-58
2022/10/13 03:30:49;;;;;;;;;;;27.10;99.90;;;;;;5031221;28;20371;-58
2022/10/13 03:33:15;;;;;;;;;;;27.10;99.90;;;;;;5032916;28;19909;-59
2022/10/13 03:35:41;;;;;;;;;;;27.10;99.90;;;;;;5032413;28;20368;-59
2022/10/13 03:38:07;;;;;;;;;;;27.10;99.90;;;;;;5032453;28;20007;-57
2022/10/13 03:40:34;;;;;;;;;;;27.10;99.90;;;;;;5032531;28;19917;-60
2022/10/13 03:43:00;;;;;;;;;;;27.10;99.90;;;;;;5032616;28;19963;-58
2022/10/13 03:45:25;;;;;;;;;;;27.00;99.90;;;;;;5047969;28;20319;-58
2022/10/13 03:47:51;;;;;;;;;;;27.00;99.90;;;;;;5032370;28;19905;-58
2022/10/13 03:50:16;;;;;;;;;;;27.00;99.90;;;;;;5032462;28;19996;-58
2022/10/13 03:52:42;;;;;;;;;;;27.00;99.90;;;;;;5032219;28;20345;-59
2022/10/13 03:55:08;;;;;;;;;;;27.00;99.90;;;;;;5032282;28;19920;-58
2022/10/13 03:57:33;;;;;;;;;;;27.00;99.90;;;;;;5032111;28;19905;-58
2022/10/13 03:59:59;;;;;;;;;;;27.00;99.90;;;;;;5031142;28;19921;-57
2022/10/13 04:02:24;;;;;;;;;;;27.00;99.90;;;;;;5032635;28;19913;-59
2022/10/13 04:04:50;;;;;;;;;;;27.00;99.90;;;;;;5032147;28;20395;-57
2022/10/13 04:07:16;;;;;;;;;;;26.90;99.90;;;;;;5047532;28;19905;-58
2022/10/13 04:09:41;;;;;;;;;;;26.90;99.90;;;;;;5032013;28;19905;-59
2022/10/13 04:12:07;;;;;;;;;;;27.00;99.90;;;;;;5031864;28;20245;-58
2022/10/13 04:14:32;;;;;;;;;;;26.90;99.90;;;;;;5031859;28;19913;-58
2022/10/13 04:16:58;;;;;;;;;;;26.90;99.90;;;;;;5031856;28;20275;-59
2022/10/13 04:19:24;;;;;;;;;;;26.90;99.90;;;;;;5031867;28;20034;-58
2022/10/13 04:21:49;;;;;;;;;;;26.90;99.90;;;;;;5032094;28;20088;-58
2022/10/13 04:24:16;;;;;;;;;;;26.90;99.90;;;;;;5031126;28;20394;-57
2022/10/13 04:26:43;;;;;;;;;;;26.90;99.90;;;;;;5031691;28;20332;-59
2022/10/13 04:29:09;;;;;;;;;;;26.90;99.90;;;;;;5031672;28;19905;-58
2022/10/13 04:31:35;;;;;;;;;;;26.90;99.90;;;;;;5031634;28;19912;-58
2022/10/13 04:34:01;;;;;;;;;;;26.90;99.90;;;;;;5031588;28;20423;-57
2022/10/13 04:36:27;;;;;;;;;;;26.80;99.90;;;;;;5031386;28;19999;-58
2022/10/13 04:38:53;;;;;;;;;;;26.80;99.90;;;;;;5031567;28;19905;-58
2022/10/13 04:41:20;;;;;;;;;;;26.90;99.90;;;;;;5031768;28;19905;-58
2022/10/13 04:43:49;;;;;;;;;;;26.80;99.90;;;;;;5031453;28;20000;-57
2022/10/13 04:46:17;;;;;;;;;;;26.80;99.90;;;;;;5031474;28;19950;-57
2022/10/13 04:48:43;;;;;;;;;;;26.80;99.90;;;;;;5031583;28;19984;-58
2022/10/13 04:51:10;;;;;;;;;;;26.80;99.90;;;;;;5031309;28;19952;-58
2022/10/13 04:53:36;;;;;;;;;;;26.80;99.90;;;;;;5031835;28;19905;-58
2022/10/13 04:56:03;;;;;;;;;;;26.80;99.90;;;;;;5031302;28;20262;-57
2022/10/13 04:58:28;;;;;;;;;;;26.80;99.90;;;;;;5031298;28;19905;-57
2022/10/13 05:00:54;;;;;;;;;;;26.80;99.90;;;;;;5031209;28;20424;-59
2022/10/13 05:03:20;;;;;;;;;;;26.80;99.90;;;;;;5031606;28;19905;-58
2022/10/13 05:05:46;;;;;;;;;;;26.80;99.90;;;;;;5031467;28;19912;-57
2022/10/13 05:08:11;;;;;;;;;;;26.70;99.90;;;;;;5031271;28;20383;-57
2022/10/13 05:10:37;;;;;;;;;;;26.80;99.90;;;;;;5031344;28;20365;-57
2022/10/13 05:13:03;;;;;;;;;;;26.70;99.90;;;;;;5031327;28;19905;-57
2022/10/13 05:15:28;;;;;;;;;;;26.70;99.90;;;;;;5030971;28;19913;-58
2022/10/13 05:17:54;;;;;;;;;;;26.70;99.90;;;;;;5031298;28;19912;-59
2022/10/13 05:20:19;;;;;;;;;;;26.70;99.90;;;;;;5031322;28;20279;-59
2022/10/13 05:22:45;;;;;;;;;;;26.70;99.90;;;;;;5031026;28;19954;-58
2022/10/13 05:25:10;;;;;;;;;;;26.70;99.90;;;;;;5031109;28;20317;-57
2022/10/13 05:27:36;;;;;;;;;;;26.70;99.90;;;;;;5031103;28;19950;-57
2022/10/13 05:30:02;;;;;;;;;;;26.70;99.90;;;;;;5031001;28;19913;-59
2022/10/13 05:32:27;;;;;;;;;;;26.70;99.90;;;;;;5031184;28;19947;-57
2022/10/13 05:34:53;;;;;;;;;;;26.70;99.90;;;;;;5031162;28;19940;-58
2022/10/13 05:37:41;;;;;;;;;;;26.70;99.90;;;;;;5049510;28;19905;-56
2022/10/13 05:40:07;;;;;;;;;;;26.70;99.90;;;;;;5034797;28;19905;-58
2022/10/13 05:42:34;;;;;;;;;;;26.60;99.90;;;;;;5034630;28;20047;-58
2022/10/13 05:44:59;;;;;;;;;;;26.60;99.90;;;;;;5034527;28;19912;-58
2022/10/13 05:47:27;;;;;;;;;;;26.60;99.90;;;;;;5034610;28;19906;-58
2022/10/13 05:49:53;;;;;;;;;;;26.60;99.90;;;;;;5034556;28;19905;-57
2022/10/13 05:52:20;;;;;;;;;;;26.60;99.90;;;;;;5049808;28;20276;-59
2022/10/13 05:54:47;;;;;;;;;;;26.60;99.90;;;;;;5034349;28;20316;-58
2022/10/13 05:57:18;;;;;;;;;;;26.60;99.90;;;;;;5034424;28;19909;-58
2022/10/13 05:59:51;;;;;;;;;;;26.60;99.90;;;;;;5033994;28;19924;-59
2022/10/13 06:02:17;;;;;;;;;;;26.60;99.90;;;;;;5049418;28;19959;-58
2022/10/13 06:04:45;;;;;;;;;;;26.60;99.90;;;;;;5034532;28;19986;-59
2022/10/13 06:07:11;;;;;;;;;;;26.60;99.90;;;;;;5034155;28;19912;-59
2022/10/13 06:09:37;;;;;;;;;;;26.60;99.90;;;;;;5034208;28;19905;-58
2022/10/13 06:12:03;;;;;;;;;;;26.60;99.90;;;;;;5034112;28;20171;-59
2022/10/13 06:14:29;;;;;;;;;;;26.50;99.90;;;;;;5033845;28;19955;-58
2022/10/13 06:16:55;;;;;;;;;;;26.60;99.90;;;;;;5034070;28;19905;-59
2022/10/13 06:19:20;;;;;;;;;;;26.50;99.90;;;;;;5033941;28;19928;-58
2022/10/13 06:21:46;;;;;;;;;;;26.50;99.90;;;;;;5033846;28;20355;-58
2022/10/13 06:24:12;;;;;;;;;;;26.50;99.90;;;;;;5033735;28;20251;-59
2022/10/13 06:26:37;;;;;;;;;;;26.50;99.90;;;;;;5033799;28;19931;-59
2022/10/13 06:29:03;;;;;;;;;;;26.50;99.90;;;;;;5033778;28;19912;-58
2022/10/13 06:31:29;;;;;;;;;;;26.50;99.90;;;;;;5033694;28;20233;-58
2022/10/13 06:33:54;;;;;;;;;;;26.50;99.90;;;;;;5033901;28;19905;-58
2022/10/13 06:36:20;;;;;;;;;;;26.50;99.90;;;;;;5033483;28;19924;-58
2022/10/13 06:38:46;;;;;;;;;;;26.50;99.90;;;;;;5033594;28;19912;-58
2022/10/13 06:41:13;;;;;;;;;;;26.50;99.90;;;;;;5033491;28;19905;-58
2022/10/13 06:43:39;;;;;;;;;;;26.50;99.90;;;;;;5033382;28;19913;-59
2022/10/13 06:46:04;;;;;;;;;;;26.50;99.90;;;;;;5033419;28;20388;-59
2022/10/13 06:48:30;;;;;;;;;;;26.50;99.90;;;;;;5033031;28;20376;-58
2022/10/13 06:50:59;;;;;;;;;;;26.50;99.90;;;;;;5033476;28;19905;-58
2022/10/13 06:53:25;;;;;;;;;;;26.50;99.90;;;;;;5033497;28;20303;-58
2022/10/13 06:55:54;;;;;;;;;;;26.50;99.90;;;;;;5033133;28;19979;-58
2022/10/13 06:58:20;;;;;;;;;;;26.50;99.90;;;;;;5033213;28;19919;-59
2022/10/13 07:00:45;;;;;;;;;;;26.50;99.90;;;;;;5032993;28;20272;-58
2022/10/13 07:03:11;;;;;;;;;;;26.50;99.90;;;;;;5033224;28;19906;-59
2022/10/13 07:05:36;;;;;;;;;;;26.50;99.90;;;;;;5033014;28;19963;-58
2022/10/13 07:08:02;;;;;;;;;;;26.50;99.90;;;;;;5033118;28;19996;-59
2022/10/13 07:10:28;;;;;;;;;;;26.50;99.90;;;;;;5033139;28;20238;-58
2022/10/13 07:12:53;;;;;;;;;;;26.50;99.90;;;;;;5033030;28;19905;-58
2022/10/13 07:15:19;;;;;;;;;;;26.50;99.90;;;;;;5032887;28;19917;-58
2022/10/13 07:17:45;;;;;;;;;;;26.50;99.90;;;;;;5032976;28;19905;-58
2022/10/13 07:20:10;;;;;;;;;;;26.50;99.90;;;;;;5032730;28;19901;-58
2022/10/13 07:22:36;;;;;;;;;;;26.50;99.90;;;;;;5032641;28;19951;-59
2022/10/13 07:25:01;;;;;;;;;;;26.50;99.90;;;;;;5032702;28;19905;-59
2022/10/13 07:27:27;;;;;;;;;;;26.60;99.90;;;;;;5032802;28;20544;-58
2022/10/13 07:29:53;;;;;;;;;;;26.60;99.90;;;;;;5032703;28;19905;-58
2022/10/13 07:32:18;;;;;;;;;;;26.60;99.90;;;;;;5032580;28;19911;-58
2022/10/13 07:34:44;;;;;;;;;;;26.60;99.90;;;;;;5032364;28;19913;-58
2022/10/13 07:37:09;;;;;;;;;;;26.60;99.90;;;;;;5032531;28;19913;-59
2022/10/13 07:39:35;;;;;;;;;;;26.60;99.90;;;;;;5032445;28;19902;-59
2022/10/13 07:42:02;;;;;;;;;;;26.70;99.90;;;;;;5032725;28;20280;-58
2022/10/13 07:44:28;;;;;;;;;;;26.60;99.90;;;;;;5032621;28;19939;-57
2022/10/13 07:46:53;;;;;;;;;;;26.70;99.90;;;;;;5032294;28;19909;-58
2022/10/13 07:49:19;;;;;;;;;;;26.70;99.90;;;;;;5032408;28;20284;-58
2022/10/13 07:51:44;;;;;;;;;;;26.70;99.90;;;;;;5032172;28;19905;-57
2022/10/13 07:54:10;;;;;;;;;;;26.70;99.90;;;;;;5032289;28;19951;-59
2022/10/13 07:56:36;;;;;;;;;;;26.70;99.90;;;;;;5032356;28;19913;-58
2022/10/13 07:59:03;;;;;;;;;;;26.70;99.90;;;;;;5031679;28;19909;-58
2022/10/13 08:01:28;;;;;;;;;;;26.80;99.90;;;;;;5032057;28;19932;-58
2022/10/13 08:03:54;;;;;;;;;;;26.80;99.90;;;;;;5031940;28;19905;-56
2022/10/13 08:06:20;;;;;;;;;;;26.80;99.90;;;;;;5032037;28;19912;-58
2022/10/13 08:08:46;;;;;;;;;;;26.80;99.90;;;;;;5031926;28;19906;-58
2022/10/13 08:11:12;;;;;;;;;;;26.80;99.90;;;;;;5031866;28;19909;-58
2022/10/13 08:13:38;;;;;;;;;;;26.80;99.90;;;;;;5031774;28;20004;-58
2022/10/13 08:16:03;;;;;;;;;;;26.80;99.90;;;;;;5031632;28;20360;-59
2022/10/13 08:18:29;;;;;;;;;;;26.90;99.90;;;;;;5031836;28;19923;-59
2022/10/13 08:20:58;;;;;;;;;;;26.90;99.90;;;;;;5031638;28;19955;-58
2022/10/13 08:23:23;;;;;;;;;;;26.90;99.90;;;;;;5031574;28;20324;-58
2022/10/13 08:25:49;;;;;;;;;;;26.90;99.90;;;;;;5031579;28;19977;-58
2022/10/13 08:28:15;;;;;;;;;;;26.90;99.90;;;;;;5031717;28;20240;-59
2022/10/13 08:30:40;;;;;;;;;;;26.90;99.90;;;;;;5031487;28;20313;-58
2022/10/13 08:33:06;;;;;;;;;;;26.90;99.90;;;;;;5031452;28;19908;-58
2022/10/13 08:35:31;;;;;;;;;;;27.00;99.90;;;;;;5031445;28;20012;-59
2022/10/13 08:37:57;;;;;;;;;;;26.90;99.90;;;;;;5031436;28;19958;-58
2022/10/13 08:40:23;;;;;;;;;;;27.00;99.90;;;;;;5031574;28;19905;-59
2022/10/13 08:42:49;;;;;;;;;;;27.00;99.90;;;;;;5031601;28;20390;-58
2022/10/13 08:45:18;;;;;;;;;;;27.00;99.90;;;;;;5031548;28;19905;-59
2022/10/13 08:47:43;;;;;;;;;;;27.00;99.90;;;;;;5031332;28;19905;-58
2022/10/13 08:50:14;;;;;;;;;;;27.00;99.90;;;;;;5031368;28;19905;-58
2022/10/13 08:52:44;;;;;;;;;;;27.10;99.90;;;;;;5031552;28;20371;-57
2022/10/13 08:55:31;;;;;;;;;;;27.10;99.90;;;;;;5031405;28;20029;-57
2022/10/13 08:57:57;;;;;;;;;;;27.10;99.90;;;;;;5031435;28;19905;-58
2022/10/13 09:00:23;;;;;;;;;;;27.10;99.90;;;;;;5030935;28;20002;-58
2022/10/13 09:02:49;;;;;;;;;;;27.10;99.90;;;;;;5031272;28;19912;-57
2022/10/13 09:05:23;;;;;;;;;;;27.10;99.90;;;;;;5031207;28;20349;-58
2022/10/13 09:07:50;;;;;;;;;;;27.10;99.90;;;;;;5031192;28;19909;-58
2022/10/13 09:10:17;;;;;;;;;;;27.20;99.90;;;;;;5032388;28;19951;-57
2022/10/13 09:12:43;;;;;;;;;;;27.20;99.90;;;;;;5035013;28;19912;-58
2022/10/13 09:15:09;;;;;;;;;;;27.20;99.90;;;;;;5035035;28;19913;-58
2022/10/13 09:17:36;;;;;;;;;;;27.20;99.90;;;;;;5035194;28;19905;-59
2022/10/13 09:20:14;;;;;;;;;;;27.20;99.90;;;;;;5035344;28;19999;-57
2022/10/13 09:22:41;;;;;;;;;;;27.30;99.90;;;;;;5050028;28;19987;-59
2022/10/13 09:25:07;;;;;;;;;;;27.30;99.90;;;;;;5034686;28;20003;-58
2022/10/13 09:27:51;;;;;;;;;;;27.30;99.90;;;;;;5034904;28;20222;-57
2022/10/13 09:30:39;;;;;;;;;;;27.30;99.90;;;;;;5034662;28;19905;-58
2022/10/13 09:33:06;;;;;;;;;;;27.30;99.90;;;;;;5035034;28;20063;-57
2022/10/13 09:35:33;;;;;;;;;;;27.30;99.90;;;;;;5034514;28;19913;-57
2022/10/13 09:38:08;;;;;;;;;;;27.40;99.90;;;;;;5034534;28;19912;-58
2022/10/13 09:40:34;;;;;;;;;;;27.40;99.90;;;;;;5034919;28;20379;-59
2022/10/13 09:43:00;;;;;;;;;;;27.40;99.90;;;;;;5034653;28;19913;-58
2022/10/13 09:45:26;;;;;;;;;;;27.40;99.90;;;;;;5033400;28;19909;-57
2022/10/13 09:47:54;;;;;;;;;;;27.50;99.90;;;;;;5034484;28;19940;-58
2022/10/13 09:50:22;;;;;;;;;;;27.50;99.90;;;;;;5034436;28;19905;-59
2022/10/13 09:52:47;;;;;;;;;;;27.50;99.90;;;;;;5034660;28;19905;-58
2022/10/13 09:55:25;;;;;;;;;;;27.50;99.90;;;;;;5034294;28;19936;-57
2022/10/13 09:57:52;;;;;;;;;;;27.60;99.90;;;;;;5034415;28;19974;-57
2022/10/13 10:00:22;;;;;;;;;;;27.60;99.90;;;;;;5034341;28;19935;-58
2022/10/13 10:03:04;;;;;;;;;;;27.60;99.90;;;;;;5034340;28;19913;-59
2022/10/13 10:05:32;;;;;;;;;;;27.70;99.90;;;;;;5034165;28;19905;-57
2022/10/13 10:08:01;;;;;;;;;;;27.70;99.90;;;;;;5049636;28;19909;-57
2022/10/13 10:10:32;;;;;;;;;;;27.70;99.90;;;;;;5034144;28;19905;-59
2022/10/13 10:12:58;;;;;;;;;;;27.80;99.90;;;;;;5034153;28;19911;-58
2022/10/13 10:15:29;;;;;;;;;;;27.80;99.90;;;;;;5033928;28;19913;-59
2022/10/13 10:18:02;;;;;;;;;;;27.80;99.90;;;;;;5033958;28;19905;-58
2022/10/13 10:20:33;;;;;;;;;;;27.90;99.90;;;;;;5033775;28;19909;-58
2022/10/13 10:23:18;;;;;;;;;;;27.90;99.90;;;;;;5033050;28;20380;-57
2022/10/13 10:25:44;;;;;;;;;;;27.90;99.90;;;;;;5033632;28;20000;-57
2022/10/13 10:28:12;;;;;;;;;;;27.90;99.90;;;;;;5033873;28;20388;-59
2022/10/13 10:30:44;;;;;;;;;;;27.90;99.90;;;;;;5034086;28;19992;-59
2022/10/13 10:33:18;;;;;;;;;;;28.00;99.90;;;;;;5033785;28;19913;-57
2022/10/13 10:36:15;;;;;;;;;;;28.00;99.90;;;;;;5033357;28;19917;-57
2022/10/13 10:38:47;;;;;;;;;;;28.10;99.90;;;;;;5033594;28;19909;-58
2022/10/13 10:41:24;;;;;;;;;;;28.10;99.90;;;;;;5033439;28;19905;-59
2022/10/13 10:43:54;;;;;;;;;;;28.10;99.90;;;;;;5033421;28;20305;-59
2022/10/13 10:46:24;;;;;;;;;;;28.20;99.90;;;;;;5033359;28;20323;-58
2022/10/13 10:48:53;;;;;;;;;;;28.20;99.90;;;;;;5033243;28;20272;-58
2022/10/13 10:51:21;;;;;;;;;;;28.20;99.90;;;;;;5033234;28;19909;-58
2022/10/13 10:53:52;;;;;;;;;;;28.30;99.90;;;;;;5033206;28;19991;-59
2022/10/13 10:56:29;;;;;;;;;;;28.30;99.90;;;;;;5033265;28;20353;-58
2022/10/13 10:58:57;;;;;;;;;;;28.30;99.90;;;;;;5033100;28;19936;-59
2022/10/13 11:01:27;;;;;;;;;;;28.30;99.90;;;;;;5032844;28;19923;-59
2022/10/13 11:03:55;;;;;;;;;;;28.40;99.90;;;;;;5032962;28;19909;-58
2022/10/13 11:06:31;;;;;;;;;;;28.50;99.90;;;;;;5033159;28;19912;-60
2022/10/13 11:08:57;;;;;;;;;;;28.40;99.90;;;;;;5033058;28;19915;-60
2022/10/13 11:11:22;;;;;;;;;;;28.40;99.90;;;;;;5032918;28;20022;-57
2022/10/13 11:13:52;;;;;;;;;;;28.50;99.90;;;;;;5032797;28;19916;-57
2022/10/13 11:16:36;;;;;;;;;;;28.50;99.90;;;;;;5031275;28;19935;-57
2022/10/13 11:19:04;;;;;;;;;;;28.50;99.90;;;;;;5032677;28;20100;-58
2022/10/13 11:21:49;;;;;;;;;;;28.60;99.90;;;;;;5032808;28;19932;-58
2022/10/13 11:24:32;;;;;;;;;;;28.60;99.90;;;;;;5032656;28;19912;-58
2022/10/13 11:27:07;;;;;;;;;;;28.60;99.90;;;;;;5032773;28;19995;-59
2022/10/13 11:29:56;;;;;;;;;;;28.70;99.90;;;;;;5032474;28;20357;-58
2022/10/13 11:35:09;;;;;;;;;;;28.70;99.90;;;;;;5031335;28;20257;-58
2022/10/13 11:37:34;;;;;;;;;;;28.70;99.90;;;;;;5032394;28;20352;-60
2022/10/13 11:40:03;;;;;;;;;;;28.80;99.90;;;;;;5032360;28;19963;-59
2022/10/13 11:42:58;;;;;;;;;;;28.80;99.90;;;;;;5032354;28;19948;-58
2022/10/13 11:45:23;;;;;;;;;;;28.80;99.90;;;;;;5012644;28;19905;-57
2022/10/13 11:47:52;;;;;;;;;;;28.90;99.90;;;;;;5032347;28;20275;-59
2022/10/13 11:50:18;;;;;;;;;;;28.90;99.90;;;;;;5047478;28;19909;-59
2022/10/13 11:52:52;;;;;;;;;;;28.90;99.90;;;;;;5032394;28;19913;-59
2022/10/13 11:55:38;;;;;;;;;;;29.00;99.90;;;;;;5032217;28;19920;-60
2022/10/13 11:58:08;;;;;;;;;;;28.90;99.90;;;;;;5028042;28;20243;-59
2022/10/13 12:00:33;;;;;;;;;;;29.00;99.90;;;;;;5031995;28;19921;-60
2022/10/13 12:02:59;;;;;;;;;;;29.00;99.90;;;;;;5031806;28;20272;-59
2022/10/13 12:05:28;;;;;;;;;;;29.00;99.90;;;;;;5032039;28;20003;-60
2022/10/13 12:07:55;;;;;;;;;;;29.00;99.90;;;;;;5031901;28;20372;-59
2022/10/13 12:10:31;;;;;;;;;;;29.10;99.90;;;;;;5031854;28;19909;-59
2022/10/13 12:12:57;;;;;;;;;;;29.10;99.90;;;;;;5031807;28;19951;-59
2022/10/13 12:15:37;;;;;;;;;;;29.10;99.90;;;;;;5031901;28;20339;-60
2022/10/13 12:18:19;;;;;;;;;;;29.20;99.90;;;;;;5031685;28;19905;-58
2022/10/13 12:20:50;;;;;;;;;;;29.10;99.90;;;;;;5031761;28;19916;-58
2022/10/13 12:23:16;;;;;;;;;;;29.20;99.90;;;;;;5031583;28;19912;-60
2022/10/13 12:25:45;;;;;;;;;;;29.20;99.90;;;;;;5031885;28;19905;-60
2022/10/13 12:28:16;;;;;;;;;;;29.20;99.90;;;;;;5031667;28;19905;-59
2022/10/13 12:30:41;;;;;;;;;;;29.20;99.90;;;;;;5031734;28;19912;-60
2022/10/13 12:33:27;;;;;;;;;;;29.20;99.90;;;;;;5031590;28;19913;-58
2022/10/13 12:35:53;;;;;;;;;;;29.30;99.90;;;;;;5031414;28;19917;-59
2022/10/13 12:38:20;;;;;;;;;;;29.30;99.90;;;;;;5031540;28;19912;-59
2022/10/13 12:40:50;;;;;;;;;;;29.30;99.90;;;;;;5031632;28;20304;-59
2022/10/13 12:43:17;;;;;;;;;;;29.40;99.90;;;;;;5031612;28;20372;-58
2022/10/13 12:45:43;;;;;;;;;;;29.40;99.90;;;;;;5031099;28;20004;-59
2022/10/13 12:48:27;;;;;;;;;;;29.40;99.90;;;;;;5031205;28;20395;-59
2022/10/13 12:50:53;;;;;;;;;;;29.40;99.90;;;;;;5031261;28;20339;-58
2022/10/13 12:53:25;;;;;;;;;;;29.40;99.90;;;;;;5031339;28;20001;-59
2022/10/13 12:55:54;;;;;;;;;;;29.40;99.90;;;;;;5031063;28;19921;-58
2022/10/13 12:58:30;;;;;;;;;;;29.40;99.90;;;;;;5031146;28;20000;-59
2022/10/13 13:01:11;;;;;;;;;;;29.50;99.90;;;;;;5030953;28;20015;-58
2022/10/13 13:03:37;;;;;;;;;;;29.50;99.90;;;;;;5031197;28;19905;-59
2022/10/13 13:06:29;;;;;;;;;;;29.50;99.90;;;;;;5031307;28;19996;-58
2022/10/13 13:09:14;;;;;;;;;;;29.50;99.90;;;;;;5029636;28;19927;-60
2022/10/13 13:11:40;;;;;;;;;;;29.60;99.90;;;;;;5029743;28;20245;-58
2022/10/13 13:14:24;;;;;;;;;;;29.60;99.90;;;;;;5030930;28;19959;-58
2022/10/13 13:17:11;;;;;;;;;;;29.60;99.90;;;;;;5031051;28;19928;-60
2022/10/13 13:19:37;;;;;;;;;;;29.60;99.90;;;;;;5031089;28;19912;-58
2022/10/13 13:22:04;;;;;;;;;;;29.60;99.90;;;;;;5031200;28;19904;-60
2022/10/13 13:24:29;;;;;;;;;;;29.70;99.90;;;;;;5030969;28;19984;-58
2022/10/13 13:26:55;;;;;;;;;;;29.70;99.90;;;;;;5031002;28;19961;-58
2022/10/13 13:29:21;;;;;;;;;;;29.70;99.90;;;;;;5030965;28;19975;-58
2022/10/13 13:31:46;;;;;;;;;;;29.70;99.90;;;;;;5031106;28;19905;-59
2022/10/13 13:34:12;;;;;;;;;;;29.70;99.90;;;;;;5030879;28;19951;-59
2022/10/13 13:36:37;;;;;;;;;;;29.70;99.90;;;;;;5030833;28;19917;-59
2022/10/13 13:39:05;;;;;;;;;;;29.80;99.90;;;;;;5030867;28;20420;-57
2022/10/13 13:41:30;;;;;;;;;;;29.80;99.90;;;;;;5030892;28;19905;-59
2022/10/13 13:43:56;;;;;;;;;;;29.80;99.90;;;;;;5030927;28;19905;-59
2022/10/13 13:46:23;;;;;;;;;;;29.80;99.90;;;;;;5030793;28;19912;-58
2022/10/13 13:48:49;;;;;;;;;;;29.90;99.90;;;;;;5031135;28;19960;-58
2022/10/13 13:51:15;;;;;;;;;;;29.90;99.90;;;;;;5030984;28;19944;-61
2022/10/13 13:53:41;;;;;;;;;;;29.90;99.90;;;;;;5030793;28;19916;-60
2022/10/13 13:56:13;;;;;;;;;;;29.90;99.90;;;;;;5030796;28;19913;-60
2022/10/13 13:58:39;;;;;;;;;;;29.90;99.90;;;;;;5034347;28;19905;-60
2022/10/13 14:01:05;;;;;;;;;;;29.90;99.90;;;;;;5034124;28;20277;-60
2022/10/13 14:03:30;;;;;;;;;;;29.90;99.90;;;;;;5034376;28;20019;-60
2022/10/13 14:05:56;;;;;;;;;;;30.00;99.90;;;;;;5034390;28;19912;-60
2022/10/13 14:08:21;;;;;;;;;;;30.00;99.90;;;;;;5034176;28;20301;-59
2022/10/13 14:10:47;;;;;;;;;;;30.00;99.90;;;;;;5034247;28;19905;-60
2022/10/13 14:13:13;;;;;;;;;;;30.00;99.90;;;;;;5034334;28;19916;-60
2022/10/13 14:15:38;;;;;;;;;;;30.10;99.90;;;;;;5033978;28;19917;-60
2022/10/13 14:18:04;;;;;;;;;;;30.00;99.90;;;;;;5034224;28;19912;-60
2022/10/13 14:20:29;;;;;;;;;;;30.10;99.90;;;;;;5034046;28;19912;-60
2022/10/13 14:22:55;;;;;;;;;;;30.10;99.90;;;;;;5034019;28;19905;-61
2022/10/13 14:25:20;;;;;;;;;;;30.10;99.90;;;;;;5034173;28;19947;-61